sensor_id;sensor_type;location;lat;lon;timestamp;P1;durP1;ratioP1;P2;durP2;ratioP2
21492;SDS011;10908;50.690;4.400;2023-03-21T00:00:40;14.40;;;6.50;;
21492;SDS011;10908;50.690;4.400;2023-03-21T00:03:06;14.90;;;5.63;;
21492;SDS011;10908;50.690;4.400;2023-03-21T00:05:32;17.75;;;6.50;;
21492;SDS011;10908;50.690;4.400;2023-03-21T00:07:58;15.82;;;6.07;;
21492;SDS011;10908;50.690;4.400;2023-03-21T00:10:24;16.75;;;5.88;;
21492;SDS011;10908;50.690;4.400;2023-03-21T00:12:50;14.43;;;5.80;;
21492;SDS011;10908;50.690;4.400;2023-03-21T00:15:19;12.00;;;5.60;;
21492;SDS011;10908;50.690;4.400;2023-03-21T00:17:45;13.60;;;5.82;;
21492;SDS011;10908;50.690;4.400;2023-03-21T00:20:14;13.00;;;5.47;;
21492;SDS011;10908;50.690;4.400;2023-03-21T00:22:40;13.60;;;5.90;;
21492;SDS011;10908;50.690;4.400;2023-03-21T00:25:07;16.98;;;5.75;;
21492;SDS011;10908;50.690;4.400;2023-03-21T00:27:33;12.27;;;5.75;;
21492;SDS011;10908;50.690;4.400;2023-03-21T00:29:59;14.82;;;5.25;;
21492;SDS011;10908;50.690;4.400;2023-03-21T00:32:25;15.55;;;5.30;;
21492;SDS011;10908;50.690;4.400;2023-03-21T00:34:50;13.80;;;5.45;;
21492;SDS011;10908;50.690;4.400;2023-03-21T00:37:16;11.85;;;4.78;;
21492;SDS011;10908;50.690;4.400;2023-03-21T00:39:43;16.17;;;4.90;;
21492;SDS011;10908;50.690;4.400;2023-03-21T00:42:12;11.27;;;4.38;;
21492;SDS011;10908;50.690;4.400;2023-03-21T00:44:39;13.77;;;4.82;;
21492;SDS011;10908;50.690;4.400;2023-03-21T00:47:05;10.48;;;4.50;;
21492;SDS011;10908;50.690;4.400;2023-03-21T00:49:31;18.90;;;4.82;;
21492;SDS011;10908;50.690;4.400;2023-03-21T00:52:01;13.65;;;4.60;;
21492;SDS011;10908;50.690;4.400;2023-03-21T00:54:28;14.20;;;4.80;;
21492;SDS011;10908;50.690;4.400;2023-03-21T00:56:54;10.05;;;4.50;;
21492;SDS011;10908;50.690;4.400;2023-03-21T00:59:19;13.23;;;5.07;;
21492;SDS011;10908;50.690;4.400;2023-03-21T01:01:45;14.93;;;4.40;;
21492;SDS011;10908;50.690;4.400;2023-03-21T01:04:11;12.77;;;4.70;;
21492;SDS011;10908;50.690;4.400;2023-03-21T01:06:39;13.55;;;4.95;;
21492;SDS011;10908;50.690;4.400;2023-03-21T01:09:06;12.48;;;4.82;;
21492;SDS011;10908;50.690;4.400;2023-03-21T01:11:37;15.43;;;5.10;;
21492;SDS011;10908;50.690;4.400;2023-03-21T01:14:03;11.98;;;4.80;;
21492;SDS011;10908;50.690;4.400;2023-03-21T01:16:29;14.02;;;4.93;;
21492;SDS011;10908;50.690;4.400;2023-03-21T01:18:54;14.30;;;5.30;;
21492;SDS011;10908;50.690;4.400;2023-03-21T01:21:20;15.68;;;5.00;;
21492;SDS011;10908;50.690;4.400;2023-03-21T01:23:46;13.88;;;5.00;;
21492;SDS011;10908;50.690;4.400;2023-03-21T01:26:13;13.70;;;5.30;;
21492;SDS011;10908;50.690;4.400;2023-03-21T01:28:40;13.13;;;5.10;;
21492;SDS011;10908;50.690;4.400;2023-03-21T01:31:07;13.38;;;4.80;;
21492;SDS011;10908;50.690;4.400;2023-03-21T01:33:35;16.13;;;5.65;;
21492;SDS011;10908;50.690;4.400;2023-03-21T01:36:01;16.23;;;5.40;;
21492;SDS011;10908;50.690;4.400;2023-03-21T01:38:28;12.88;;;4.70;;
21492;SDS011;10908;50.690;4.400;2023-03-21T01:40:53;19.45;;;5.32;;
21492;SDS011;10908;50.690;4.400;2023-03-21T01:48:34;15.75;;;5.53;;
21492;SDS011;10908;50.690;4.400;2023-03-21T01:51:02;16.25;;;5.13;;
21492;SDS011;10908;50.690;4.400;2023-03-21T01:53:29;14.70;;;4.82;;
21492;SDS011;10908;50.690;4.400;2023-03-21T01:56:02;15.18;;;5.00;;
21492;SDS011;10908;50.690;4.400;2023-03-21T01:58:35;13.48;;;4.40;;
21492;SDS011;10908;50.690;4.400;2023-03-21T02:01:02;10.70;;;4.65;;
21492;SDS011;10908;50.690;4.400;2023-03-21T02:03:28;16.58;;;4.30;;
21492;SDS011;10908;50.690;4.400;2023-03-21T02:06:04;14.10;;;4.32;;
21492;SDS011;10908;50.690;4.400;2023-03-21T02:08:43;13.27;;;4.38;;
21492;SDS011;10908;50.690;4.400;2023-03-21T02:11:09;11.82;;;3.90;;
21492;SDS011;10908;50.690;4.400;2023-03-21T02:13:35;16.80;;;5.05;;
21492;SDS011;10908;50.690;4.400;2023-03-21T02:16:04;13.65;;;3.67;;
21492;SDS011;10908;50.690;4.400;2023-03-21T02:24:45;14.15;;;3.53;;
21492;SDS011;10908;50.690;4.400;2023-03-21T02:27:15;12.88;;;3.30;;
21492;SDS011;10908;50.690;4.400;2023-03-21T02:29:57;10.93;;;2.92;;
21492;SDS011;10908;50.690;4.400;2023-03-21T02:35:52;10.70;;;2.72;;
21492;SDS011;10908;50.690;4.400;2023-03-21T02:49:59;10.02;;;2.72;;
21492;SDS011;10908;50.690;4.400;2023-03-21T02:52:31;14.05;;;3.30;;
21492;SDS011;10908;50.690;4.400;2023-03-21T02:54:58;10.18;;;2.85;;
21492;SDS011;10908;50.690;4.400;2023-03-21T02:57:29;12.30;;;3.33;;
21492;SDS011;10908;50.690;4.400;2023-03-21T02:59:55;11.05;;;2.95;;
21492;SDS011;10908;50.690;4.400;2023-03-21T03:02:22;12.02;;;3.45;;
21492;SDS011;10908;50.690;4.400;2023-03-21T03:04:51;14.88;;;3.55;;
21492;SDS011;10908;50.690;4.400;2023-03-21T03:09:54;10.60;;;3.50;;
21492;SDS011;10908;50.690;4.400;2023-03-21T03:23:54;11.27;;;3.60;;
21492;SDS011;10908;50.690;4.400;2023-03-21T03:26:36;11.40;;;4.10;;
21492;SDS011;10908;50.690;4.400;2023-03-21T03:29:12;11.68;;;3.40;;
21492;SDS011;10908;50.690;4.400;2023-03-21T03:31:51;15.40;;;4.40;;
21492;SDS011;10908;50.690;4.400;2023-03-21T03:34:22;14.93;;;4.93;;
21492;SDS011;10908;50.690;4.400;2023-03-21T03:36:57;12.10;;;4.55;;
21492;SDS011;10908;50.690;4.400;2023-03-21T03:39:50;12.95;;;5.32;;
21492;SDS011;10908;50.690;4.400;2023-03-21T03:42:30;16.00;;;5.78;;
21492;SDS011;10908;50.690;4.400;2023-03-21T03:45:00;19.85;;;6.30;;
21492;SDS011;10908;50.690;4.400;2023-03-21T03:47:41;15.20;;;5.50;;
21492;SDS011;10908;50.690;4.400;2023-03-21T03:50:12;16.17;;;6.05;;
21492;SDS011;10908;50.690;4.400;2023-03-21T03:52:46;14.70;;;6.00;;
21492;SDS011;10908;50.690;4.400;2023-03-21T03:55:15;14.00;;;5.50;;
21492;SDS011;10908;50.690;4.400;2023-03-21T03:57:43;15.90;;;5.93;;
21492;SDS011;10908;50.690;4.400;2023-03-21T04:00:10;15.00;;;6.25;;
21492;SDS011;10908;50.690;4.400;2023-03-21T04:02:37;18.45;;;6.28;;
21492;SDS011;10908;50.690;4.400;2023-03-21T04:05:03;16.65;;;6.40;;
21492;SDS011;10908;50.690;4.400;2023-03-21T04:07:30;17.23;;;6.88;;
21492;SDS011;10908;50.690;4.400;2023-03-21T04:09:56;19.23;;;6.88;;
21492;SDS011;10908;50.690;4.400;2023-03-21T04:12:22;16.30;;;6.68;;
21492;SDS011;10908;50.690;4.400;2023-03-21T04:14:48;15.65;;;6.03;;
21492;SDS011;10908;50.690;4.400;2023-03-21T04:17:14;18.85;;;6.95;;
21492;SDS011;10908;50.690;4.400;2023-03-21T04:19:40;18.20;;;6.38;;
21492;SDS011;10908;50.690;4.400;2023-03-21T04:22:06;14.57;;;5.97;;
21492;SDS011;10908;50.690;4.400;2023-03-21T04:24:32;16.60;;;6.32;;
21492;SDS011;10908;50.690;4.400;2023-03-21T04:26:58;16.80;;;6.35;;
21492;SDS011;10908;50.690;4.400;2023-03-21T04:29:25;21.00;;;6.85;;
21492;SDS011;10908;50.690;4.400;2023-03-21T04:31:54;15.75;;;6.47;;
21492;SDS011;10908;50.690;4.400;2023-03-21T04:34:20;15.90;;;5.75;;
21492;SDS011;10908;50.690;4.400;2023-03-21T04:36:48;18.58;;;6.85;;
21492;SDS011;10908;50.690;4.400;2023-03-21T04:39:14;19.52;;;6.40;;
21492;SDS011;10908;50.690;4.400;2023-03-21T04:41:42;18.98;;;6.30;;
21492;SDS011;10908;50.690;4.400;2023-03-21T04:44:10;14.82;;;5.75;;
21492;SDS011;10908;50.690;4.400;2023-03-21T04:46:36;15.77;;;6.00;;
21492;SDS011;10908;50.690;4.400;2023-03-21T04:49:03;15.68;;;5.88;;
21492;SDS011;10908;50.690;4.400;2023-03-21T04:51:31;16.05;;;5.65;;
21492;SDS011;10908;50.690;4.400;2023-03-21T04:53:57;18.80;;;6.38;;
21492;SDS011;10908;50.690;4.400;2023-03-21T04:56:26;16.83;;;6.10;;
21492;SDS011;10908;50.690;4.400;2023-03-21T04:59:11;15.23;;;6.38;;
21492;SDS011;10908;50.690;4.400;2023-03-21T05:01:38;17.17;;;5.75;;
21492;SDS011;10908;50.690;4.400;2023-03-21T05:04:05;16.40;;;5.47;;
21492;SDS011;10908;50.690;4.400;2023-03-21T05:06:31;19.25;;;7.13;;
21492;SDS011;10908;50.690;4.400;2023-03-21T05:08:58;15.43;;;5.70;;
21492;SDS011;10908;50.690;4.400;2023-03-21T05:11:27;17.73;;;5.38;;
21492;SDS011;10908;50.690;4.400;2023-03-21T05:13:54;18.40;;;5.88;;
21492;SDS011;10908;50.690;4.400;2023-03-21T05:16:20;16.40;;;5.50;;
21492;SDS011;10908;50.690;4.400;2023-03-21T05:18:50;14.32;;;5.50;;
21492;SDS011;10908;50.690;4.400;2023-03-21T05:21:18;14.55;;;5.35;;
21492;SDS011;10908;50.690;4.400;2023-03-21T05:23:45;16.23;;;4.93;;
21492;SDS011;10908;50.690;4.400;2023-03-21T05:26:19;14.80;;;5.35;;
21492;SDS011;10908;50.690;4.400;2023-03-21T05:28:46;11.75;;;4.93;;
21492;SDS011;10908;50.690;4.400;2023-03-21T05:31:15;12.80;;;5.40;;
21492;SDS011;10908;50.690;4.400;2023-03-21T05:33:43;15.63;;;5.20;;
21492;SDS011;10908;50.690;4.400;2023-03-21T05:36:09;13.57;;;4.90;;
21492;SDS011;10908;50.690;4.400;2023-03-21T05:38:35;15.05;;;4.75;;
21492;SDS011;10908;50.690;4.400;2023-03-21T05:41:02;13.18;;;4.95;;
21492;SDS011;10908;50.690;4.400;2023-03-21T05:43:28;12.10;;;4.40;;
21492;SDS011;10908;50.690;4.400;2023-03-21T05:45:54;11.98;;;4.60;;
21492;SDS011;10908;50.690;4.400;2023-03-21T05:48:19;14.50;;;4.57;;
21492;SDS011;10908;50.690;4.400;2023-03-21T05:50:45;11.63;;;4.35;;
21492;SDS011;10908;50.690;4.400;2023-03-21T05:53:11;17.33;;;5.18;;
21492;SDS011;10908;50.690;4.400;2023-03-21T05:55:36;12.48;;;4.78;;
21492;SDS011;10908;50.690;4.400;2023-03-21T05:58:03;18.38;;;4.57;;
21492;SDS011;10908;50.690;4.400;2023-03-21T06:00:29;14.32;;;4.35;;
21492;SDS011;10908;50.690;4.400;2023-03-21T06:02:55;14.65;;;4.97;;
21492;SDS011;10908;50.690;4.400;2023-03-21T06:05:20;13.57;;;4.45;;
21492;SDS011;10908;50.690;4.400;2023-03-21T06:07:46;15.20;;;4.47;;
21492;SDS011;10908;50.690;4.400;2023-03-21T06:10:12;12.80;;;4.03;;
21492;SDS011;10908;50.690;4.400;2023-03-21T06:12:38;14.80;;;4.75;;
21492;SDS011;10908;50.690;4.400;2023-03-21T06:15:04;13.85;;;4.32;;
21492;SDS011;10908;50.690;4.400;2023-03-21T06:17:32;14.82;;;4.20;;
21492;SDS011;10908;50.690;4.400;2023-03-21T06:19:58;11.60;;;3.67;;
21492;SDS011;10908;50.690;4.400;2023-03-21T06:22:25;12.05;;;4.00;;
21492;SDS011;10908;50.690;4.400;2023-03-21T06:24:51;8.02;;;3.78;;
21492;SDS011;10908;50.690;4.400;2023-03-21T06:27:17;12.32;;;3.70;;
21492;SDS011;10908;50.690;4.400;2023-03-21T06:29:43;10.55;;;3.63;;
21492;SDS011;10908;50.690;4.400;2023-03-21T06:32:10;14.98;;;3.95;;
21492;SDS011;10908;50.690;4.400;2023-03-21T06:34:36;11.00;;;3.28;;
21492;SDS011;10908;50.690;4.400;2023-03-21T06:37:02;11.38;;;3.22;;
21492;SDS011;10908;50.690;4.400;2023-03-21T06:39:28;9.02;;;3.63;;
21492;SDS011;10908;50.690;4.400;2023-03-21T06:41:55;12.23;;;4.05;;
21492;SDS011;10908;50.690;4.400;2023-03-21T06:44:21;14.15;;;4.03;;
21492;SDS011;10908;50.690;4.400;2023-03-21T06:46:48;13.77;;;3.40;;
21492;SDS011;10908;50.690;4.400;2023-03-21T06:49:15;8.07;;;2.92;;
21492;SDS011;10908;50.690;4.400;2023-03-21T06:51:41;6.78;;;2.92;;
21492;SDS011;10908;50.690;4.400;2023-03-21T06:54:06;11.02;;;2.92;;
21492;SDS011;10908;50.690;4.400;2023-03-21T06:56:32;11.25;;;3.05;;
21492;SDS011;10908;50.690;4.400;2023-03-21T06:58:58;10.23;;;2.97;;
21492;SDS011;10908;50.690;4.400;2023-03-21T07:01:23;9.85;;;3.00;;
21492;SDS011;10908;50.690;4.400;2023-03-21T07:03:51;11.20;;;3.15;;
21492;SDS011;10908;50.690;4.400;2023-03-21T07:06:21;7.82;;;2.80;;
21492;SDS011;10908;50.690;4.400;2023-03-21T07:08:50;10.15;;;2.97;;
21492;SDS011;10908;50.690;4.400;2023-03-21T07:11:17;11.00;;;2.90;;
21492;SDS011;10908;50.690;4.400;2023-03-21T07:13:43;9.13;;;2.45;;
21492;SDS011;10908;50.690;4.400;2023-03-21T07:16:10;7.70;;;2.03;;
21492;SDS011;10908;50.690;4.400;2023-03-21T07:18:35;6.93;;;2.30;;
21492;SDS011;10908;50.690;4.400;2023-03-21T07:21:02;12.07;;;2.65;;
21492;SDS011;10908;50.690;4.400;2023-03-21T07:23:28;6.80;;;2.60;;
21492;SDS011;10908;50.690;4.400;2023-03-21T07:25:54;9.68;;;2.85;;
21492;SDS011;10908;50.690;4.400;2023-03-21T07:28:21;8.75;;;2.58;;
21492;SDS011;10908;50.690;4.400;2023-03-21T07:30:51;10.23;;;3.22;;
21492;SDS011;10908;50.690;4.400;2023-03-21T07:33:37;8.23;;;3.03;;
21492;SDS011;10908;50.690;4.400;2023-03-21T07:36:03;9.13;;;3.30;;
21492;SDS011;10908;50.690;4.400;2023-03-21T07:38:33;11.45;;;3.67;;
21492;SDS011;10908;50.690;4.400;2023-03-21T07:40:59;9.48;;;3.25;;
21492;SDS011;10908;50.690;4.400;2023-03-21T07:43:25;9.75;;;4.05;;
21492;SDS011;10908;50.690;4.400;2023-03-21T07:45:51;10.55;;;3.60;;
21492;SDS011;10908;50.690;4.400;2023-03-21T07:48:21;13.73;;;3.92;;
21492;SDS011;10908;50.690;4.400;2023-03-21T07:50:47;13.80;;;4.20;;
21492;SDS011;10908;50.690;4.400;2023-03-21T07:53:13;8.35;;;3.70;;
21492;SDS011;10908;50.690;4.400;2023-03-21T07:55:39;12.65;;;4.15;;
21492;SDS011;10908;50.690;4.400;2023-03-21T07:58:04;9.23;;;4.00;;
21492;SDS011;10908;50.690;4.400;2023-03-21T08:00:30;10.07;;;3.85;;
21492;SDS011;10908;50.690;4.400;2023-03-21T08:02:57;11.68;;;4.38;;
21492;SDS011;10908;50.690;4.400;2023-03-21T08:05:24;13.43;;;4.32;;
21492;SDS011;10908;50.690;4.400;2023-03-21T08:08:01;10.93;;;4.03;;
21492;SDS011;10908;50.690;4.400;2023-03-21T08:10:27;11.30;;;3.83;;
21492;SDS011;10908;50.690;4.400;2023-03-21T08:12:52;12.75;;;4.45;;
21492;SDS011;10908;50.690;4.400;2023-03-21T08:15:18;11.88;;;3.80;;
21492;SDS011;10908;50.690;4.400;2023-03-21T08:17:44;12.70;;;4.05;;
21492;SDS011;10908;50.690;4.400;2023-03-21T08:20:11;12.32;;;3.60;;
21492;SDS011;10908;50.690;4.400;2023-03-21T08:22:39;11.55;;;3.47;;
21492;SDS011;10908;50.690;4.400;2023-03-21T08:25:06;8.63;;;3.75;;
21492;SDS011;10908;50.690;4.400;2023-03-21T08:27:32;8.88;;;3.70;;
21492;SDS011;10908;50.690;4.400;2023-03-21T08:29:58;12.13;;;3.38;;
21492;SDS011;10908;50.690;4.400;2023-03-21T08:32:25;9.30;;;3.53;;
21492;SDS011;10908;50.690;4.400;2023-03-21T08:34:57;13.48;;;4.20;;
21492;SDS011;10908;50.690;4.400;2023-03-21T08:37:23;11.60;;;3.72;;
21492;SDS011;10908;50.690;4.400;2023-03-21T08:39:50;10.82;;;3.78;;
21492;SDS011;10908;50.690;4.400;2023-03-21T08:42:17;10.10;;;3.55;;
21492;SDS011;10908;50.690;4.400;2023-03-21T08:44:43;8.48;;;3.45;;
21492;SDS011;10908;50.690;4.400;2023-03-21T08:47:09;10.75;;;3.45;;
21492;SDS011;10908;50.690;4.400;2023-03-21T08:49:35;9.80;;;3.88;;
21492;SDS011;10908;50.690;4.400;2023-03-21T08:52:01;10.50;;;3.60;;
21492;SDS011;10908;50.690;4.400;2023-03-21T08:54:27;8.55;;;3.58;;
21492;SDS011;10908;50.690;4.400;2023-03-21T08:56:52;11.02;;;3.70;;
21492;SDS011;10908;50.690;4.400;2023-03-21T08:59:18;9.88;;;3.47;;
21492;SDS011;10908;50.690;4.400;2023-03-21T09:01:44;14.98;;;3.55;;
21492;SDS011;10908;50.690;4.400;2023-03-21T09:04:11;12.05;;;4.15;;
21492;SDS011;10908;50.690;4.400;2023-03-21T09:06:37;12.02;;;3.50;;
21492;SDS011;10908;50.690;4.400;2023-03-21T09:09:09;12.80;;;3.58;;
21492;SDS011;10908;50.690;4.400;2023-03-21T09:11:36;9.95;;;3.55;;
21492;SDS011;10908;50.690;4.400;2023-03-21T09:14:02;12.32;;;3.78;;
21492;SDS011;10908;50.690;4.400;2023-03-21T09:16:28;11.35;;;3.53;;
21492;SDS011;10908;50.690;4.400;2023-03-21T09:18:54;12.77;;;3.55;;
21492;SDS011;10908;50.690;4.400;2023-03-21T09:21:21;11.52;;;3.47;;
21492;SDS011;10908;50.690;4.400;2023-03-21T09:23:48;10.07;;;3.38;;
21492;SDS011;10908;50.690;4.400;2023-03-21T09:26:19;8.90;;;3.20;;
21492;SDS011;10908;50.690;4.400;2023-03-21T09:28:46;9.90;;;3.67;;
21492;SDS011;10908;50.690;4.400;2023-03-21T09:31:13;10.73;;;3.80;;
21492;SDS011;10908;50.690;4.400;2023-03-21T09:33:41;9.55;;;3.20;;
21492;SDS011;10908;50.690;4.400;2023-03-21T09:36:08;11.73;;;3.85;;
21492;SDS011;10908;50.690;4.400;2023-03-21T09:38:36;15.43;;;3.63;;
21492;SDS011;10908;50.690;4.400;2023-03-21T09:46:43;11.35;;;3.50;;
21492;SDS011;10908;50.690;4.400;2023-03-21T09:49:34;12.13;;;3.67;;
21492;SDS011;10908;50.690;4.400;2023-03-21T09:52:12;11.30;;;3.50;;
21492;SDS011;10908;50.690;4.400;2023-03-21T09:54:43;7.88;;;3.05;;
21492;SDS011;10908;50.690;4.400;2023-03-21T09:57:15;10.93;;;3.10;;
21492;SDS011;10908;50.690;4.400;2023-03-21T10:00:06;9.40;;;3.30;;
21492;SDS011;10908;50.690;4.400;2023-03-21T10:02:46;10.07;;;3.20;;
21492;SDS011;10908;50.690;4.400;2023-03-21T10:05:17;12.30;;;3.13;;
21492;SDS011;10908;50.690;4.400;2023-03-21T10:08:05;9.52;;;2.90;;
21492;SDS011;10908;50.690;4.400;2023-03-21T10:10:42;8.85;;;2.67;;
21492;SDS011;10908;50.690;4.400;2023-03-21T10:13:14;8.30;;;2.80;;
21492;SDS011;10908;50.690;4.400;2023-03-21T10:15:45;10.90;;;3.10;;
21492;SDS011;10908;50.690;4.400;2023-03-21T10:18:23;8.45;;;2.70;;
21492;SDS011;10908;50.690;4.400;2023-03-21T10:20:51;10.38;;;2.95;;
21492;SDS011;10908;50.690;4.400;2023-03-21T10:23:19;7.38;;;2.63;;
21492;SDS011;10908;50.690;4.400;2023-03-21T10:25:47;9.00;;;2.72;;
21492;SDS011;10908;50.690;4.400;2023-03-21T10:28:18;8.82;;;2.45;;
21492;SDS011;10908;50.690;4.400;2023-03-21T10:30:56;11.15;;;2.80;;
21492;SDS011;10908;50.690;4.400;2023-03-21T10:33:25;11.40;;;3.00;;
21492;SDS011;10908;50.690;4.400;2023-03-21T10:35:57;10.27;;;3.15;;
21492;SDS011;10908;50.690;4.400;2023-03-21T10:38:26;7.90;;;2.50;;
21492;SDS011;10908;50.690;4.400;2023-03-21T10:40:52;9.57;;;2.97;;
21492;SDS011;10908;50.690;4.400;2023-03-21T10:45:50;10.48;;;2.90;;
21492;SDS011;10908;50.690;4.400;2023-03-21T10:48:16;11.45;;;2.95;;
21492;SDS011;10908;50.690;4.400;2023-03-21T10:50:42;7.63;;;2.50;;
21492;SDS011;10908;50.690;4.400;2023-03-21T10:53:14;8.65;;;2.78;;
21492;SDS011;10908;50.690;4.400;2023-03-21T10:55:46;9.20;;;3.05;;
21492;SDS011;10908;50.690;4.400;2023-03-21T10:58:19;10.23;;;3.28;;
21492;SDS011;10908;50.690;4.400;2023-03-21T11:00:55;10.32;;;3.13;;
21492;SDS011;10908;50.690;4.400;2023-03-21T11:03:27;11.40;;;2.97;;
21492;SDS011;10908;50.690;4.400;2023-03-21T11:08:43;9.27;;;3.45;;
21492;SDS011;10908;50.690;4.400;2023-03-21T11:11:25;9.75;;;3.00;;
21492;SDS011;10908;50.690;4.400;2023-03-21T11:14:03;8.38;;;3.03;;
21492;SDS011;10908;50.690;4.400;2023-03-21T11:16:35;9.32;;;3.17;;
21492;SDS011;10908;50.690;4.400;2023-03-21T11:19:17;9.98;;;3.05;;
21492;SDS011;10908;50.690;4.400;2023-03-21T11:21:44;10.50;;;3.05;;
21492;SDS011;10908;50.690;4.400;2023-03-21T11:24:15;6.85;;;2.72;;
21492;SDS011;10908;50.690;4.400;2023-03-21T11:26:46;9.43;;;3.13;;
21492;SDS011;10908;50.690;4.400;2023-03-21T11:31:58;8.80;;;2.85;;
21492;SDS011;10908;50.690;4.400;2023-03-21T11:34:30;7.75;;;3.30;;
21492;SDS011;10908;50.690;4.400;2023-03-21T11:37:03;10.35;;;3.30;;
21492;SDS011;10908;50.690;4.400;2023-03-21T11:41:56;7.93;;;2.92;;
21492;SDS011;10908;50.690;4.400;2023-03-21T11:44:23;11.50;;;3.28;;
21492;SDS011;10908;50.690;4.400;2023-03-21T11:46:51;8.57;;;2.97;;
21492;SDS011;10908;50.690;4.400;2023-03-21T11:49:17;12.38;;;3.80;;
21492;SDS011;10908;50.690;4.400;2023-03-21T12:00:09;12.73;;;5.13;;
21492;SDS011;10908;50.690;4.400;2023-03-21T12:05:38;10.13;;;4.10;;
21492;SDS011;10908;50.690;4.400;2023-03-21T12:21:54;6.60;;;2.63;;
21492;SDS011;10908;50.690;4.400;2023-03-21T12:27:05;10.65;;;3.20;;
21492;SDS011;10908;50.690;4.400;2023-03-21T12:35:39;9.18;;;3.10;;
21492;SDS011;10908;50.690;4.400;2023-03-21T12:46:28;9.25;;;2.97;;
21492;SDS011;10908;50.690;4.400;2023-03-21T12:49:02;9.50;;;3.13;;
21492;SDS011;10908;50.690;4.400;2023-03-21T12:51:38;6.13;;;2.95;;
21492;SDS011;10908;50.690;4.400;2023-03-21T12:54:15;7.82;;;3.15;;
21492;SDS011;10908;50.690;4.400;2023-03-21T12:56:53;9.30;;;3.13;;
21492;SDS011;10908;50.690;4.400;2023-03-21T12:59:39;8.82;;;3.15;;
21492;SDS011;10908;50.690;4.400;2023-03-21T13:02:13;8.68;;;3.25;;
21492;SDS011;10908;50.690;4.400;2023-03-21T13:07:57;8.90;;;3.20;;
21492;SDS011;10908;50.690;4.400;2023-03-21T13:10:28;6.32;;;2.80;;
21492;SDS011;10908;50.690;4.400;2023-03-21T13:15:38;9.45;;;3.75;;
21492;SDS011;10908;50.690;4.400;2023-03-21T13:21:00;10.18;;;3.20;;
21492;SDS011;10908;50.690;4.400;2023-03-21T13:23:36;9.55;;;3.30;;
21492;SDS011;10908;50.690;4.400;2023-03-21T13:26:03;9.05;;;3.53;;
21492;SDS011;10908;50.690;4.400;2023-03-21T13:28:37;9.05;;;3.40;;
21492;SDS011;10908;50.690;4.400;2023-03-21T13:31:16;9.40;;;3.20;;
21492;SDS011;10908;50.690;4.400;2023-03-21T13:33:46;8.50;;;3.30;;
21492;SDS011;10908;50.690;4.400;2023-03-21T13:36:15;6.10;;;3.10;;
21492;SDS011;10908;50.690;4.400;2023-03-21T13:38:50;9.45;;;3.25;;
21492;SDS011;10908;50.690;4.400;2023-03-21T13:41:19;7.25;;;3.30;;
21492;SDS011;10908;50.690;4.400;2023-03-21T13:43:54;9.02;;;3.45;;
21492;SDS011;10908;50.690;4.400;2023-03-21T13:46:54;8.32;;;3.55;;
21492;SDS011;10908;50.690;4.400;2023-03-21T13:49:26;8.50;;;3.33;;
21492;SDS011;10908;50.690;4.400;2023-03-21T13:51:55;8.82;;;3.22;;
21492;SDS011;10908;50.690;4.400;2023-03-21T13:54:26;8.57;;;3.10;;
21492;SDS011;10908;50.690;4.400;2023-03-21T13:57:19;7.00;;;3.17;;
21492;SDS011;10908;50.690;4.400;2023-03-21T14:00:19;9.23;;;3.42;;
21492;SDS011;10908;50.690;4.400;2023-03-21T14:03:11;11.60;;;4.03;;
21492;SDS011;10908;50.690;4.400;2023-03-21T14:05:41;7.82;;;3.97;;
21492;SDS011;10908;50.690;4.400;2023-03-21T14:08:14;10.00;;;4.03;;
21492;SDS011;10908;50.690;4.400;2023-03-21T14:10:42;10.18;;;4.00;;
21492;SDS011;10908;50.690;4.400;2023-03-21T14:13:12;9.85;;;4.30;;
21492;SDS011;10908;50.690;4.400;2023-03-21T14:15:44;8.18;;;4.22;;
21492;SDS011;10908;50.690;4.400;2023-03-21T14:18:17;10.77;;;4.40;;
21492;SDS011;10908;50.690;4.400;2023-03-21T14:20:44;9.80;;;4.70;;
21492;SDS011;10908;50.690;4.400;2023-03-21T14:23:15;10.63;;;4.50;;
21492;SDS011;10908;50.690;4.400;2023-03-21T14:25:41;10.23;;;4.00;;
21492;SDS011;10908;50.690;4.400;2023-03-21T14:28:14;9.65;;;4.30;;
21492;SDS011;10908;50.690;4.400;2023-03-21T14:30:51;10.63;;;4.50;;
21492;SDS011;10908;50.690;4.400;2023-03-21T14:35:45;10.48;;;4.82;;
21492;SDS011;10908;50.690;4.400;2023-03-21T14:38:19;11.35;;;5.00;;
21492;SDS011;10908;50.690;4.400;2023-03-21T14:40:51;10.35;;;5.10;;
21492;SDS011;10908;50.690;4.400;2023-03-21T14:43:20;10.15;;;4.88;;
21492;SDS011;10908;50.690;4.400;2023-03-21T14:45:48;11.23;;;5.38;;
21492;SDS011;10908;50.690;4.400;2023-03-21T14:48:17;8.90;;;4.57;;
21492;SDS011;10908;50.690;4.400;2023-03-21T14:50:44;10.32;;;5.60;;
21492;SDS011;10908;50.690;4.400;2023-03-21T14:53:18;11.43;;;5.63;;
21492;SDS011;10908;50.690;4.400;2023-03-21T14:56:23;15.05;;;5.57;;
21492;SDS011;10908;50.690;4.400;2023-03-21T14:58:46;11.93;;;5.40;;
21492;SDS011;10908;50.690;4.400;2023-03-21T15:01:15;13.50;;;6.20;;
21492;SDS011;10908;50.690;4.400;2023-03-21T15:03:46;16.02;;;7.30;;
21492;SDS011;10908;50.690;4.400;2023-03-21T15:06:15;16.65;;;7.32;;
21492;SDS011;10908;50.690;4.400;2023-03-21T15:08:52;15.60;;;7.60;;
21492;SDS011;10908;50.690;4.400;2023-03-21T15:14:05;15.38;;;7.80;;
21492;SDS011;10908;50.690;4.400;2023-03-21T15:16:32;19.42;;;8.77;;
21492;SDS011;10908;50.690;4.400;2023-03-21T15:18:59;18.80;;;8.75;;
21492;SDS011;10908;50.690;4.400;2023-03-21T15:21:47;17.15;;;9.55;;
21492;SDS011;10908;50.690;4.400;2023-03-21T15:24:24;18.63;;;10.07;;
21492;SDS011;10908;50.690;4.400;2023-03-21T15:26:58;20.15;;;9.32;;
21492;SDS011;10908;50.690;4.400;2023-03-21T15:29:26;19.90;;;9.23;;
21492;SDS011;10908;50.690;4.400;2023-03-21T15:31:52;16.92;;;9.00;;
21492;SDS011;10908;50.690;4.400;2023-03-21T15:34:26;17.80;;;8.15;;
21492;SDS011;10908;50.690;4.400;2023-03-21T15:36:57;15.60;;;7.85;;
21492;SDS011;10908;50.690;4.400;2023-03-21T15:39:29;18.27;;;8.43;;
21492;SDS011;10908;50.690;4.400;2023-03-21T15:55:29;14.30;;;8.27;;
21492;SDS011;10908;50.690;4.400;2023-03-21T15:58:05;14.95;;;8.45;;
21492;SDS011;10908;50.690;4.400;2023-03-21T16:00:38;14.00;;;7.60;;
21492;SDS011;10908;50.690;4.400;2023-03-21T16:03:06;13.52;;;7.68;;
21492;SDS011;10908;50.690;4.400;2023-03-21T16:05:40;14.80;;;7.82;;
21492;SDS011;10908;50.690;4.400;2023-03-21T16:08:19;12.90;;;6.72;;
21492;SDS011;10908;50.690;4.400;2023-03-21T16:10:47;15.88;;;7.43;;
21492;SDS011;10908;50.690;4.400;2023-03-21T16:13:15;15.93;;;7.93;;
21492;SDS011;10908;50.690;4.400;2023-03-21T16:15:41;14.35;;;6.85;;
21492;SDS011;10908;50.690;4.400;2023-03-21T16:18:07;14.25;;;7.32;;
21492;SDS011;10908;50.690;4.400;2023-03-21T16:20:38;13.48;;;7.45;;
21492;SDS011;10908;50.690;4.400;2023-03-21T16:23:09;14.68;;;7.63;;
21492;SDS011;10908;50.690;4.400;2023-03-21T16:25:36;11.98;;;7.40;;
21492;SDS011;10908;50.690;4.400;2023-03-21T16:28:01;14.60;;;8.45;;
21492;SDS011;10908;50.690;4.400;2023-03-21T16:30:27;16.05;;;8.57;;
21492;SDS011;10908;50.690;4.400;2023-03-21T16:32:53;16.25;;;8.05;;
21492;SDS011;10908;50.690;4.400;2023-03-21T16:35:20;15.10;;;7.75;;
21492;SDS011;10908;50.690;4.400;2023-03-21T16:37:46;15.40;;;7.47;;
21492;SDS011;10908;50.690;4.400;2023-03-21T16:40:27;13.63;;;7.20;;
21492;SDS011;10908;50.690;4.400;2023-03-21T16:42:56;13.68;;;6.95;;
21492;SDS011;10908;50.690;4.400;2023-03-21T16:45:22;10.90;;;6.50;;
21492;SDS011;10908;50.690;4.400;2023-03-21T16:47:48;9.23;;;5.68;;
21492;SDS011;10908;50.690;4.400;2023-03-21T16:50:19;9.93;;;5.88;;
21492;SDS011;10908;50.690;4.400;2023-03-21T16:52:49;9.80;;;5.63;;
21492;SDS011;10908;50.690;4.400;2023-03-21T16:55:16;9.15;;;5.03;;
21492;SDS011;10908;50.690;4.400;2023-03-21T16:57:42;10.23;;;5.55;;